createdAt,value
2022-11-17T00:02:09.056Z,12.30
2022-11-17T00:04:35.786Z,12.35
2022-11-17T00:07:02.444Z,12.24
2022-11-17T00:09:29.080Z,12.27
2022-11-17T00:11:55.701Z,12.33
2022-11-17T00:14:22.358Z,12.45
2022-11-17T00:16:49.027Z,12.33
2022-11-17T00:19:15.671Z,12.31
2022-11-17T00:21:42.312Z,12.32
2022-11-17T00:24:08.939Z,12.35
2022-11-17T00:26:35.614Z,12.39
2022-11-17T00:29:02.259Z,12.40
2022-11-17T00:31:28.875Z,12.41
2022-11-17T00:33:55.526Z,12.46
2022-11-17T00:36:22.195Z,12.48
2022-11-17T00:38:48.807Z,12.36
2022-11-17T00:41:15.468Z,12.33
2022-11-17T00:43:42.114Z,12.35
2022-11-17T00:46:08.779Z,12.35
2022-11-17T00:48:35.404Z,12.38
2022-11-17T00:51:02.076Z,12.48
2022-11-17T00:53:28.713Z,12.58
2022-11-17T00:55:55.392Z,12.58
2022-11-17T00:58:22.051Z,12.47
2022-11-17T01:00:48.835Z,12.58
2022-11-17T01:03:15.476Z,12.66
2022-11-17T01:05:42.115Z,12.72
2022-11-17T01:08:08.767Z,12.68
2022-11-17T01:10:35.509Z,12.65
2022-11-17T01:13:02.145Z,12.54
2022-11-17T01:15:28.768Z,12.55
2022-11-17T01:17:55.638Z,12.48
2022-11-17T01:20:22.359Z,12.41
2022-11-17T01:22:49.017Z,12.45
2022-11-17T01:25:15.695Z,12.40
2022-11-17T01:27:42.336Z,12.41
2022-11-17T01:30:09.018Z,12.41
2022-11-17T01:32:35.661Z,12.47
2022-11-17T01:35:02.325Z,12.39
2022-11-17T01:37:28.952Z,12.21
2022-11-17T01:39:55.611Z,12.24
2022-11-17T01:42:22.287Z,12.32
2022-11-17T01:44:48.915Z,12.13
2022-11-17T01:47:15.620Z,11.73
2022-11-17T01:49:42.235Z,11.73
2022-11-17T01:52:08.914Z,11.67
2022-11-17T01:54:35.548Z,11.79
2022-11-17T01:57:02.170Z,11.98
2022-11-17T01:59:28.848Z,12.09
2022-11-17T02:01:55.748Z,12.19
2022-11-17T02:04:22.664Z,12.04
2022-11-17T02:06:49.370Z,11.93
2022-11-17T02:09:16.063Z,12.11
2022-11-17T02:11:42.703Z,12.11
2022-11-17T02:14:09.367Z,12.26
2022-11-17T02:16:35.983Z,12.32
2022-11-17T02:19:02.665Z,12.36
2022-11-17T02:21:29.295Z,12.37
2022-11-17T02:23:55.955Z,12.26
2022-11-17T02:26:22.625Z,11.93
2022-11-17T02:28:49.305Z,12.06
2022-11-17T02:31:15.968Z,12.18
2022-11-17T02:33:42.599Z,12.00
2022-11-17T02:36:09.283Z,12.07
2022-11-17T02:38:35.917Z,12.06
2022-11-17T02:41:02.564Z,11.79
2022-11-17T02:43:29.249Z,11.72
2022-11-17T02:45:55.862Z,11.68
2022-11-17T02:48:22.511Z,11.80
2022-11-17T02:50:49.185Z,11.77
2022-11-17T02:53:15.827Z,11.81
2022-11-17T02:55:42.439Z,11.69
2022-11-17T02:58:09.131Z,11.76
2022-11-17T03:00:35.784Z,11.69
2022-11-17T03:03:02.450Z,11.77
2022-11-17T03:05:29.083Z,11.87
2022-11-17T03:07:55.738Z,12.05
2022-11-17T03:10:22.775Z,12.06
2022-11-17T03:12:49.489Z,12.00
2022-11-17T03:15:16.111Z,12.00
2022-11-17T03:17:42.752Z,12.03
2022-11-17T03:20:09.360Z,12.16
2022-11-17T03:22:35.966Z,12.06
2022-11-17T03:25:02.656Z,12.12
2022-11-17T03:27:29.295Z,12.16
2022-11-17T03:29:55.932Z,12.10
2022-11-17T03:32:22.582Z,11.73
2022-11-17T03:34:49.229Z,11.79
2022-11-17T03:37:15.891Z,11.75
2022-11-17T03:39:42.569Z,11.87
2022-11-17T03:42:09.217Z,11.87
2022-11-17T03:44:35.882Z,11.97
2022-11-17T03:47:02.714Z,11.99
2022-11-17T03:49:29.370Z,11.94
2022-11-17T03:51:56.047Z,11.71
2022-11-17T03:54:22.722Z,11.79
2022-11-17T03:56:49.357Z,11.83
2022-11-17T03:59:19.055Z,11.78
2022-11-17T04:01:45.800Z,11.78
2022-11-17T04:04:12.527Z,11.68
2022-11-17T04:06:39.195Z,11.60
2022-11-17T04:09:05.827Z,11.43
2022-11-17T04:11:32.472Z,11.42
2022-11-17T04:13:59.307Z,11.45
2022-11-17T04:16:25.980Z,11.42
2022-11-17T04:18:58.524Z,11.31
2022-11-17T04:21:25.443Z,10.96
2022-11-17T04:23:52.074Z,11.03
2022-11-17T04:26:18.748Z,11.07
2022-11-17T04:28:45.477Z,11.12
2022-11-17T04:31:12.110Z,11.05
2022-11-17T04:33:38.969Z,11.10
2022-11-17T04:36:05.653Z,11.05
2022-11-17T04:38:32.311Z,10.98
2022-11-17T04:40:58.967Z,10.94
2022-11-17T04:43:25.634Z,11.00
2022-11-17T04:45:52.267Z,11.03
2022-11-17T04:48:18.922Z,11.08
2022-11-17T04:50:45.945Z,11.00
2022-11-17T04:53:12.633Z,11.06
2022-11-17T04:55:39.280Z,11.13
2022-11-17T04:58:05.962Z,11.05
2022-11-17T05:00:32.613Z,11.08
2022-11-17T05:02:59.290Z,11.09
2022-11-17T05:05:25.994Z,10.92
2022-11-17T05:07:52.631Z,10.95
2022-11-17T05:10:19.280Z,10.82
2022-11-17T05:12:46.026Z,10.79
2022-11-17T05:15:12.679Z,10.78
2022-11-17T05:17:39.329Z,10.90
2022-11-17T05:20:06.061Z,11.07
2022-11-17T05:22:32.692Z,11.13
2022-11-17T05:24:59.381Z,11.09
2022-11-17T05:27:26.042Z,11.24
2022-11-17T05:29:52.649Z,11.11
2022-11-17T05:32:19.261Z,11.13
2022-11-17T05:34:46.008Z,11.07
2022-11-17T05:37:12.668Z,10.99
2022-11-17T05:39:39.314Z,11.10
2022-11-17T05:42:06.005Z,11.13
2022-11-17T05:44:32.647Z,11.18
2022-11-17T05:46:59.300Z,11.04
2022-11-17T05:49:26.014Z,11.00
2022-11-17T05:51:53.233Z,11.03
2022-11-17T05:54:20.058Z,11.00
2022-11-17T05:56:46.744Z,11.06
2022-11-17T05:59:13.386Z,10.92
2022-11-17T06:01:40.106Z,10.92
2022-11-17T06:04:06.709Z,10.96
2022-11-17T06:06:33.365Z,11.09
2022-11-17T06:09:00.048Z,11.16
2022-11-17T06:11:26.690Z,11.22
2022-11-17T06:13:53.348Z,11.17
2022-11-17T06:16:20.012Z,11.12
2022-11-17T06:18:46.681Z,11.08
2022-11-17T06:21:14.014Z,11.17
2022-11-17T06:23:40.692Z,11.04
2022-11-17T06:26:07.355Z,10.76
2022-11-17T06:28:34.048Z,10.87
2022-11-17T06:31:00.728Z,10.78
2022-11-17T06:33:27.374Z,10.65
2022-11-17T06:35:53.992Z,10.85
2022-11-17T06:38:20.655Z,11.06
2022-11-17T06:40:47.337Z,11.07
2022-11-17T06:43:14.001Z,11.22
2022-11-17T06:45:40.667Z,11.37
2022-11-17T06:48:07.317Z,11.43
2022-11-17T06:50:34.014Z,11.53
2022-11-17T06:53:00.669Z,11.66
2022-11-17T06:55:27.379Z,11.74
2022-11-17T06:57:54.065Z,11.77
2022-11-17T07:00:20.734Z,11.79
2022-11-17T07:02:47.446Z,11.83
2022-11-17T07:05:14.103Z,11.98
2022-11-17T07:07:40.769Z,11.97
2022-11-17T07:10:07.439Z,12.02
2022-11-17T07:12:34.151Z,12.07
2022-11-17T07:15:00.823Z,12.14
2022-11-17T07:17:27.543Z,12.12
2022-11-17T07:19:54.187Z,12.16
2022-11-17T07:22:20.844Z,12.18
2022-11-17T07:24:47.500Z,12.28
2022-11-17T07:27:14.188Z,12.25
2022-11-17T07:29:40.844Z,12.39
2022-11-17T07:32:07.514Z,12.59
2022-11-17T07:34:34.221Z,12.67
2022-11-17T07:37:00.893Z,12.72
2022-11-17T07:39:27.567Z,12.28
2022-11-17T07:41:54.211Z,12.05
2022-11-17T07:44:21.036Z,12.25
2022-11-17T07:46:47.745Z,12.41
2022-11-17T07:49:14.424Z,12.46
2022-11-17T07:51:41.125Z,12.63
2022-11-17T07:54:07.827Z,12.60
2022-11-17T07:56:34.476Z,12.62
2022-11-17T07:59:01.187Z,12.37
2022-11-17T08:01:27.938Z,12.23
2022-11-17T08:03:54.849Z,12.34
2022-11-17T08:06:21.626Z,12.63
2022-11-17T08:08:48.311Z,12.83
2022-11-17T08:11:14.975Z,13.10
2022-11-17T08:13:41.875Z,13.34
2022-11-17T08:16:08.507Z,13.44
2022-11-17T08:18:35.478Z,13.55
2022-11-17T08:21:02.457Z,13.62
2022-11-17T08:23:29.160Z,13.40
2022-11-17T08:25:55.800Z,13.44
2022-11-17T08:28:22.485Z,13.56
2022-11-17T08:30:49.206Z,13.15
2022-11-17T08:33:15.898Z,13.00
2022-11-17T08:35:42.530Z,13.42
2022-11-17T08:38:09.187Z,13.37
2022-11-17T08:40:35.852Z,13.54
2022-11-17T08:43:02.499Z,13.75
2022-11-17T08:45:29.160Z,13.62
2022-11-17T08:47:55.865Z,13.76
2022-11-17T08:50:22.772Z,13.93
2022-11-17T08:52:49.471Z,13.93
2022-11-17T08:55:16.185Z,13.71
2022-11-17T08:57:42.945Z,13.69
2022-11-17T09:00:09.629Z,13.93
2022-11-17T09:02:36.314Z,14.21
2022-11-17T09:05:03.054Z,14.27
2022-11-17T09:07:34.621Z,14.35
2022-11-17T09:10:01.644Z,14.32
2022-11-17T09:12:28.307Z,14.37
2022-11-17T09:14:54.920Z,14.44
2022-11-17T09:17:21.560Z,14.49
2022-11-17T09:19:48.268Z,14.47
2022-11-17T09:22:14.957Z,14.46
2022-11-17T09:24:41.611Z,14.35
2022-11-17T09:27:08.278Z,14.24
2022-11-17T09:29:35.263Z,14.16
2022-11-17T09:32:01.883Z,14.47
2022-11-17T09:34:28.571Z,14.82
2022-11-17T09:36:55.294Z,14.80
2022-11-17T09:39:21.970Z,14.79
2022-11-17T09:41:48.729Z,14.67
2022-11-17T09:44:15.456Z,14.50
2022-11-17T09:46:42.143Z,14.78
2022-11-17T09:49:08.850Z,14.61
2022-11-17T09:51:35.514Z,14.20
2022-11-17T09:54:02.244Z,13.85
2022-11-17T09:56:29.112Z,14.21
2022-11-17T09:58:55.766Z,14.59
2022-11-17T10:01:22.617Z,14.38
2022-11-17T10:03:49.491Z,14.51
2022-11-17T10:06:16.352Z,14.95
2022-11-17T10:08:43.054Z,14.99
2022-11-17T10:11:10.531Z,15.07
2022-11-17T10:13:37.990Z,14.99
2022-11-17T10:16:05.633Z,15.19
2022-11-17T10:18:37.706Z,15.10
2022-11-17T10:21:05.074Z,14.81
2022-11-17T10:23:31.772Z,14.77
2022-11-17T10:25:58.571Z,15.13
2022-11-17T10:28:25.481Z,15.36
2022-11-17T10:30:52.185Z,15.58
2022-11-17T10:33:18.991Z,15.60
2022-11-17T10:35:45.943Z,15.24
2022-11-17T10:38:12.668Z,15.62
2022-11-17T10:40:39.475Z,14.99
2022-11-17T10:43:06.342Z,15.41
2022-11-17T10:45:33.500Z,16.12
2022-11-17T10:48:00.345Z,16.59
2022-11-17T10:50:27.284Z,16.67
2022-11-17T10:52:54.409Z,16.77
2022-11-17T10:55:21.519Z,16.88
2022-11-17T10:57:48.212Z,17.15
2022-11-17T11:00:15.563Z,17.20
2022-11-17T11:02:42.299Z,16.89
2022-11-17T11:05:08.975Z,16.95
2022-11-17T11:07:36.096Z,16.90
2022-11-17T11:10:03.038Z,16.68
2022-11-17T11:12:30.200Z,16.42
2022-11-17T11:14:56.946Z,15.88
2022-11-17T11:17:23.804Z,15.08
2022-11-17T11:19:50.487Z,15.29
2022-11-17T11:22:21.239Z,15.09
2022-11-17T11:24:48.803Z,14.98
2022-11-17T11:27:15.716Z,15.58
2022-11-17T11:29:42.402Z,16.25
2022-11-17T11:32:09.387Z,16.30
2022-11-17T11:34:36.341Z,16.41
2022-11-17T11:37:03.291Z,16.48
2022-11-17T11:39:30.379Z,16.36
2022-11-17T11:41:57.365Z,16.69
2022-11-17T11:44:24.070Z,16.98
2022-11-17T11:46:50.938Z,16.44
2022-11-17T11:49:18.142Z,16.28
2022-11-17T11:51:45.526Z,16.86
2022-11-17T11:54:12.900Z,16.72
2022-11-17T11:56:39.948Z,16.04
2022-11-17T11:59:07.123Z,16.19
2022-11-17T12:01:34.115Z,15.60
2022-11-17T12:04:01.472Z,15.45
2022-11-17T12:06:28.419Z,15.41
2022-11-17T12:08:55.070Z,15.51
2022-11-17T12:11:21.914Z,16.44
2022-11-17T12:13:52.851Z,17.20
2022-11-17T12:16:21.150Z,17.32
2022-11-17T12:18:51.059Z,17.53
2022-11-17T12:21:17.886Z,17.68
2022-11-17T12:23:44.514Z,17.78
2022-11-17T12:26:11.140Z,17.63
2022-11-17T12:28:38.064Z,17.95
2022-11-17T12:31:09.699Z,17.97
2022-11-17T12:33:36.977Z,17.33
2022-11-17T12:36:03.680Z,16.48
2022-11-17T12:38:30.369Z,16.92
2022-11-17T12:40:57.079Z,16.91
2022-11-17T12:43:23.704Z,17.02
2022-11-17T12:45:50.390Z,17.53
2022-11-17T12:48:32.906Z,17.46
2022-11-17T12:51:04.902Z,17.88
2022-11-17T12:53:31.921Z,18.11
2022-11-17T12:55:58.556Z,18.04
2022-11-17T12:58:25.290Z,17.98
2022-11-17T13:00:52.083Z,17.41
2022-11-17T13:03:18.826Z,17.35
2022-11-17T13:05:45.483Z,17.60
2022-11-17T13:08:12.156Z,16.73
2022-11-17T13:10:38.856Z,16.79
2022-11-17T13:13:05.545Z,17.16
2022-11-17T13:15:32.243Z,16.17
2022-11-17T13:17:58.962Z,16.05
2022-11-17T13:20:25.628Z,15.72
2022-11-17T13:22:52.253Z,15.48
2022-11-17T13:25:18.867Z,15.11
2022-11-17T13:27:49.386Z,15.23
2022-11-17T13:30:21.193Z,15.27
2022-11-17T13:32:47.894Z,16.01
2022-11-17T13:35:14.609Z,16.71
2022-11-17T13:37:41.530Z,17.04
2022-11-17T13:40:08.213Z,17.14
2022-11-17T13:42:34.868Z,17.27
2022-11-17T13:45:01.541Z,17.18
2022-11-17T13:47:28.219Z,16.87
2022-11-17T13:49:54.932Z,16.94
2022-11-17T13:52:21.723Z,17.01
2022-11-17T13:54:48.461Z,17.06
2022-11-17T13:57:15.133Z,17.07
2022-11-17T13:59:41.892Z,16.89
2022-11-17T14:02:08.611Z,16.55
2022-11-17T14:04:35.269Z,16.20
2022-11-17T14:07:01.993Z,16.35
2022-11-17T14:09:28.751Z,16.45
2022-11-17T14:11:55.371Z,15.55
2022-11-17T14:14:22.020Z,15.79
2022-11-17T14:16:48.651Z,16.15
2022-11-17T14:19:15.431Z,16.14
2022-11-17T14:21:42.262Z,16.05
2022-11-17T14:24:08.899Z,16.17
2022-11-17T14:26:35.531Z,16.36
2022-11-17T14:29:02.179Z,16.60
2022-11-17T14:31:28.850Z,16.48
2022-11-17T14:33:55.543Z,16.59
2022-11-17T14:36:22.166Z,16.75
2022-11-17T14:38:48.859Z,16.75
2022-11-17T14:41:15.499Z,16.71
2022-11-17T14:43:42.175Z,16.68
2022-11-17T14:46:08.825Z,16.62
2022-11-17T14:48:35.554Z,16.58
2022-11-17T14:51:02.250Z,16.57
2022-11-17T14:53:28.941Z,16.53
2022-11-17T14:55:55.607Z,16.42
2022-11-17T14:58:22.319Z,16.34
2022-11-17T15:00:48.955Z,16.23
2022-11-17T15:03:15.677Z,16.16
2022-11-17T15:05:42.382Z,16.11
2022-11-17T15:08:09.056Z,16.01
2022-11-17T15:10:35.690Z,15.91
2022-11-17T15:13:02.347Z,15.74
2022-11-17T15:15:29.024Z,15.60
2022-11-17T15:17:55.684Z,15.57
2022-11-17T15:20:22.335Z,15.60
2022-11-17T15:22:48.963Z,15.37
2022-11-17T15:25:15.635Z,15.32
2022-11-17T15:27:42.323Z,15.08
2022-11-17T15:30:08.970Z,14.96
2022-11-17T15:32:35.646Z,14.94
2022-11-17T15:35:02.400Z,15.04
2022-11-17T15:37:29.072Z,15.03
2022-11-17T15:39:55.711Z,14.99
2022-11-17T15:42:22.348Z,14.86
2022-11-17T15:44:48.968Z,14.84
2022-11-17T15:47:15.624Z,14.76
2022-11-17T15:49:42.341Z,14.66
2022-11-17T15:52:08.955Z,14.61
2022-11-17T15:54:35.575Z,14.61
2022-11-17T15:57:02.220Z,14.59
2022-11-17T15:59:28.957Z,14.55
2022-11-17T16:01:55.606Z,14.47
2022-11-17T16:04:22.374Z,14.38
2022-11-17T16:06:48.981Z,14.30
2022-11-17T16:09:16.028Z,14.22
2022-11-17T16:11:43.082Z,14.22
2022-11-17T16:14:09.743Z,14.14
2022-11-17T16:16:36.452Z,14.16
2022-11-17T16:19:03.098Z,14.16
2022-11-17T16:21:29.735Z,14.09
2022-11-17T16:23:56.414Z,14.01
2022-11-17T16:26:23.079Z,14.03
2022-11-17T16:28:49.701Z,13.79
2022-11-17T16:31:16.345Z,13.69
2022-11-17T16:33:42.983Z,13.59
2022-11-17T16:36:09.667Z,13.48
2022-11-17T16:38:36.532Z,13.45
2022-11-17T16:41:03.190Z,13.48
2022-11-17T16:43:29.812Z,13.43
2022-11-17T16:45:56.482Z,13.43
2022-11-17T16:48:23.128Z,13.39
2022-11-17T16:50:49.804Z,13.40
2022-11-17T16:53:16.499Z,13.42
2022-11-17T16:55:43.181Z,13.36
2022-11-17T16:58:09.879Z,13.32
2022-11-17T17:00:36.553Z,13.25
2022-11-17T17:03:03.296Z,13.24
2022-11-17T17:05:29.991Z,13.13
2022-11-17T17:07:56.647Z,13.10
2022-11-17T17:10:23.261Z,12.94
2022-11-17T17:12:49.987Z,12.82
2022-11-17T17:15:16.748Z,12.71
2022-11-17T17:17:43.373Z,12.69
2022-11-17T17:20:10.010Z,12.76
2022-11-17T17:22:36.680Z,12.70
2022-11-17T17:25:03.345Z,12.65
2022-11-17T17:27:29.996Z,12.61
2022-11-17T17:29:56.766Z,12.59
2022-11-17T17:32:23.588Z,12.52
2022-11-17T17:34:50.251Z,12.50
2022-11-17T17:37:16.972Z,12.45
2022-11-17T17:39:43.603Z,12.46
2022-11-17T17:42:10.292Z,12.37
2022-11-17T17:44:36.998Z,12.34
2022-11-17T17:47:03.627Z,12.43
2022-11-17T17:49:30.474Z,12.35
2022-11-17T17:51:57.112Z,12.29
2022-11-17T17:54:23.826Z,12.14
2022-11-17T17:56:50.439Z,11.71
2022-11-17T17:59:17.350Z,11.73
2022-11-17T18:01:44.212Z,11.81
2022-11-17T18:04:15.542Z,11.83
2022-11-17T18:06:43.038Z,11.81
2022-11-17T18:09:09.715Z,11.64
2022-11-17T18:11:36.358Z,11.63
2022-11-17T18:14:03.033Z,11.77
2022-11-17T18:16:29.736Z,11.88
2022-11-17T18:18:56.427Z,11.90
2022-11-17T18:21:23.091Z,11.88
2022-11-17T18:23:49.815Z,11.90
2022-11-17T18:26:16.541Z,11.98
2022-11-17T18:28:43.248Z,12.01
2022-11-17T18:31:09.975Z,11.98
2022-11-17T18:33:36.811Z,12.04
2022-11-17T18:36:03.412Z,12.16
2022-11-17T18:38:30.084Z,12.27
2022-11-17T18:40:59.371Z,12.24
2022-11-17T18:43:26.258Z,12.28
2022-11-17T18:45:53.709Z,12.35
2022-11-17T18:48:20.359Z,12.36
2022-11-17T18:51:17.431Z,12.44
2022-11-17T18:53:33.660Z,12.31
2022-11-17T18:56:00.421Z,12.27
2022-11-17T18:58:27.122Z,12.30
2022-11-17T19:00:53.902Z,12.27
2022-11-17T19:03:20.546Z,12.17
2022-11-17T19:05:47.275Z,11.96
2022-11-17T19:08:13.928Z,11.93
2022-11-17T19:10:40.655Z,11.85
2022-11-17T19:13:07.299Z,11.80
2022-11-17T19:15:34.019Z,11.87
2022-11-17T19:18:00.648Z,11.94
2022-11-17T19:20:27.348Z,11.98
2022-11-17T19:22:54.066Z,12.06
2022-11-17T19:25:20.688Z,12.00
2022-11-17T19:27:48.609Z,11.81
2022-11-17T19:30:15.302Z,11.66
2022-11-17T19:32:41.959Z,11.71
2022-11-17T19:35:14.827Z,11.73
2022-11-17T19:37:43.726Z,11.61
2022-11-17T19:40:10.412Z,11.53
2022-11-17T19:42:37.083Z,11.64
2022-11-17T19:45:03.922Z,11.70
2022-11-17T19:47:30.578Z,11.51
2022-11-17T19:49:57.251Z,11.20
2022-11-17T19:52:23.919Z,11.00
2022-11-17T19:54:50.867Z,11.12
2022-11-17T19:57:17.559Z,11.25
2022-11-17T19:59:44.241Z,11.32
2022-11-17T20:02:11.947Z,11.26
2022-11-17T20:04:38.546Z,11.15
2022-11-17T20:07:05.314Z,10.88
2022-11-17T20:09:32.037Z,10.77
2022-11-17T20:11:58.683Z,10.75
2022-11-17T20:14:28.218Z,10.63
2022-11-17T20:16:54.908Z,10.72
2022-11-17T20:19:21.594Z,10.74
2022-11-17T20:21:48.248Z,10.80
2022-11-17T20:24:14.930Z,10.86
2022-11-17T20:26:41.564Z,10.84
2022-11-17T20:29:08.257Z,10.83
2022-11-17T20:31:35.035Z,10.63
2022-11-17T20:34:01.661Z,10.26
2022-11-17T20:36:28.332Z,10.22
2022-11-17T20:38:55.043Z,10.40
2022-11-17T20:41:21.682Z,10.48
2022-11-17T20:43:48.335Z,10.53
2022-11-17T20:46:15.037Z,10.64
2022-11-17T20:48:41.738Z,10.67
2022-11-17T20:51:08.589Z,10.68
2022-11-17T20:53:35.205Z,10.62
2022-11-17T20:56:01.820Z,10.51
2022-11-17T20:58:28.484Z,10.56
2022-11-17T21:00:55.167Z,10.40
2022-11-17T21:03:21.900Z,10.14
2022-11-17T21:05:48.590Z,10.19
2022-11-17T21:08:15.313Z,10.24
2022-11-17T21:10:41.963Z,10.27
2022-11-17T21:13:08.598Z,10.29
2022-11-17T21:15:35.270Z,10.29
2022-11-17T21:18:01.947Z,10.29
2022-11-17T21:20:28.587Z,10.43
2022-11-17T21:22:55.305Z,10.41
2022-11-17T21:25:21.989Z,10.36
2022-11-17T21:27:48.709Z,10.46
2022-11-17T21:30:15.371Z,10.60
2022-11-17T21:32:42.056Z,10.56
2022-11-17T21:35:08.779Z,10.69
2022-11-17T21:37:35.514Z,10.82
2022-11-17T21:40:02.148Z,10.84
2022-11-17T21:42:28.893Z,10.64
2022-11-17T21:44:55.577Z,10.80
2022-11-17T21:47:22.323Z,10.89
2022-11-17T21:49:48.962Z,10.87
2022-11-17T21:52:15.571Z,10.77
2022-11-17T21:54:42.215Z,10.86
2022-11-17T21:57:08.858Z,10.85
2022-11-17T21:59:35.526Z,10.97
2022-11-17T22:02:02.195Z,10.69
2022-11-17T22:04:28.895Z,10.85
2022-11-17T22:06:55.600Z,10.99
2022-11-17T22:09:22.336Z,11.13
2022-11-17T22:11:49.028Z,11.06
2022-11-17T22:14:15.639Z,10.80
2022-11-17T22:16:42.336Z,10.97
2022-11-17T22:19:09.027Z,10.98
2022-11-17T22:21:35.704Z,11.12
2022-11-17T22:24:02.367Z,11.21
2022-11-17T22:26:29.026Z,11.17
2022-11-17T22:28:55.761Z,11.10
2022-11-17T22:31:22.453Z,11.14
2022-11-17T22:33:49.099Z,11.14
2022-11-17T22:36:15.786Z,11.07
2022-11-17T22:38:42.418Z,11.00
2022-11-17T22:41:09.098Z,10.98
2022-11-17T22:43:35.837Z,11.06
2022-11-17T22:46:02.556Z,11.09
2022-11-17T22:48:29.278Z,11.06
2022-11-17T22:50:55.987Z,10.87
2022-11-17T22:53:22.723Z,10.74
2022-11-17T22:55:49.357Z,10.81
2022-11-17T22:58:16.022Z,10.80
2022-11-17T23:00:43.210Z,10.82
2022-11-17T23:03:09.900Z,10.47
2022-11-17T23:05:36.575Z,10.54
2022-11-17T23:08:09.317Z,10.40
2022-11-17T23:10:36.534Z,10.46
2022-11-17T23:13:03.218Z,10.31
2022-11-17T23:15:29.853Z,9.98
2022-11-17T23:17:56.497Z,10.17
2022-11-17T23:20:23.158Z,10.32
2022-11-17T23:22:49.793Z,10.15
2022-11-17T23:25:16.473Z,10.31
2022-11-17T23:27:43.125Z,10.08
2022-11-17T23:30:09.768Z,10.29
2022-11-17T23:32:36.548Z,10.30
2022-11-17T23:35:03.204Z,10.11
2022-11-17T23:37:29.855Z,10.25
2022-11-17T23:39:56.499Z,10.29
2022-11-17T23:42:23.158Z,10.22
2022-11-17T23:44:49.810Z,10.04
2022-11-17T23:47:16.505Z,9.98
2022-11-17T23:49:43.129Z,9.77
2022-11-17T23:52:09.852Z,9.71
2022-11-17T23:54:36.542Z,9.63
2022-11-17T23:57:03.215Z,9.75
2022-11-17T23:59:29.925Z,9.81
